Tropical Cyclones
[Index]
Main Index Home Page Stock Weather Photos Extreme Storms Discussion Storm News and Storm Chasing Reports Tropical Cyclones / Hurricanes / Typhoons Weather Data and Links Wild Fires / Bushfires Weather Observation Techniques Weather Picture Catalogue Tornado Pictures and Reports Stock Video Footage and DVDs for sale
Season 1968-1969 Tropical Cyclone IRENE Track Map
Season 1968-1969 Summaries: [BoM-AU] [JTWC-AU] [JTWC-SIO] [JTWC-SPAC] [JTWC-SH]
<<- Previous TC | JTWC 1968-1969 Season | Next TC ->>

click for intensity scale information  Lat/long Grid: Show Hide

 Date Labels: Show Hide

Joint Typhoon Warning Centre Cyclone Data

Name: IRENE
Number: 702 / 6924

16 Feb 1969 00:00 UTC to 25 Feb 1969 00:00 UTC

    date/time    lat    long     hPa   cat  kts
1969-02-16 00   14.8   174.6                              
1969-02-16 06   15.4   174.3                              
1969-02-16 12   15.9   174.0                              
1969-02-16 18   16.3   173.6                              
1969-02-17 00   16.6   173.2                              
1969-02-17 06   17.0   172.7                              
1969-02-17 12   17.4   172.2                              
1969-02-17 18   17.5   171.7                              
1969-02-18 00   17.4   171.0                              
1969-02-18 06   17.4   169.7                              
1969-02-18 12   17.6   168.2                              
1969-02-18 18   18.2   167.1                              
1969-02-19 00   18.9   166.2                              
1969-02-19 06   19.5   165.6                              
1969-02-19 12   20.0   165.0                              
1969-02-19 18   20.5   164.1                              
1969-02-20 00   20.7   163.3                              
1969-02-20 06   20.6   162.6                              
1969-02-20 12   20.5   161.9                              
1969-02-20 18   20.4   161.4                              
1969-02-21 00   20.2   160.8                              
1969-02-21 06   19.9   160.2                              
1969-02-21 12   19.6   159.5                              
1969-02-21 18   19.4   158.9                              
1969-02-22 00   19.2   158.3                              
1969-02-22 06   18.9   157.5                              
1969-02-22 12   18.6   156.6                              
1969-02-22 18   18.4   155.7                              
1969-02-23 00   18.3   154.8                              
1969-02-23 06   18.6   153.9                              
1969-02-23 12   19.0   153.0                              
1969-02-23 18   19.2   153.4                              
1969-02-24 00   18.9   154.2                              
1969-02-24 06   18.2   154.1                              
1969-02-24 12   17.5   154.0                              
1969-02-24 18   16.8   153.9                              
1969-02-25 00   16.0   153.8                              
Winds are 1-min average.

Tropical cyclone tracks developed by Michael Bath using data from the Joint Typhoon Warning Centre Best Tracks and Google Maps.


[Australian Severe Weather index] [Copyright Notice] [Email Contacts] [Search This Site] [Privacy Policy]
Document: tropical_cyclone_irene.htm Updated: 18 September 2016